Time;durP1;ratioP1;P1;durP2;ratioP2;P2;SDS_P1;SDS_P2;PMS_P1;PMS_P2;Temp;Humidity;BMP_temperature;BMP_pressure;BME280_temperature;BME280_humidity;BME280_pressure;Samples;Min_cycle;Max_cycle;Signal;HPM_P1;HPM_P2
2023/05/22 00:06:46;;;;;;;;;;;17.20;1.00;;;;;;5095497;28;20346;-83
2023/05/22 00:12:17;;;;;;;;;;;17.10;1.00;;;;;;5095123;28;20282;-75
2023/05/22 00:14:43;;;;;;;;;;;17.10;1.00;;;;;;5095350;28;20007;-75
2023/05/22 00:17:13;;;;;;;;;;;17.10;1.00;;;;;;5095137;28;19970;-75
2023/05/22 00:19:41;;;;;;;;;;;17.00;1.00;;;;;;5094858;28;19987;-75
2023/05/22 00:22:30;;;;;;;;;;;17.00;1.00;;;;;;5095030;28;19904;-74
2023/05/22 00:25:29;;;;;;;;;;;17.00;1.00;;;;;;5094708;28;19904;-75
2023/05/22 00:30:58;;;;;;;;;;;16.90;1.00;;;;;;5104502;28;19910;-83
2023/05/22 00:36:26;;;;;;;;;;;16.80;1.00;;;;;;5094699;28;19948;-83
2023/05/22 00:41:55;;;;;;;;;;;16.80;1.00;;;;;;5115356;28;19945;-83
2023/05/22 00:47:25;;;;;;;;;;;16.70;1.00;;;;;;5094642;28;19910;-83
2023/05/22 00:49:51;;;;;;;;;;;16.70;1.00;;;;;;5094595;28;19957;-83
2023/05/22 00:52:17;;;;;;;;;;;16.70;1.00;;;;;;5094860;28;19915;-83
2023/05/22 00:57:46;;;;;;;;;;;16.60;1.00;;;;;;5095321;28;19957;-83
2023/05/22 01:03:16;;;;;;;;;;;16.60;1.00;;;;;;5103077;28;19911;-84
2023/05/22 01:08:44;;;;;;;;;;;16.50;1.00;;;;;;5099140;28;19911;-84
2023/05/22 01:11:12;;;;;;;;;;;16.50;1.00;;;;;;5076529;28;19908;-76
2023/05/22 01:13:53;;;;;;;;;;;16.50;1.00;;;;;;5094363;28;19908;-75
2023/05/22 01:16:40;;;;;;;;;;;16.50;1.00;;;;;;5094459;28;19904;-75
2023/05/22 01:19:29;;;;;;;;;;;16.50;1.00;;;;;;5095957;28;19977;-75
2023/05/22 01:22:13;;;;;;;;;;;16.50;1.00;;;;;;5114568;28;19903;-75
2023/05/22 01:24:42;;;;;;;;;;;16.50;1.00;;;;;;5114797;28;20331;-75
2023/05/22 01:27:35;;;;;;;;;;;16.50;1.00;;;;;;5115326;28;19927;-83
2023/05/22 01:36:07;;;;;;;;;;;16.40;1.00;;;;;;5099922;28;20377;-83
2023/05/22 01:38:53;;;;;;;;;;;16.30;1.00;;;;;;5080028;28;20378;-83
2023/05/22 01:41:23;;;;;;;;;;;16.30;1.00;;;;;;5080248;28;19925;-82
2023/05/22 01:44:05;;;;;;;;;;;16.20;1.00;;;;;;5098244;28;19911;-75
2023/05/22 01:46:41;;;;;;;;;;;16.20;1.00;;;;;;5098033;28;19911;-74
2023/05/22 01:49:07;;;;;;;;;;;16.10;1.00;;;;;;5109949;28;19908;-75
2023/05/22 01:51:55;;;;;;;;;;;16.10;1.00;;;;;;5114499;28;19912;-75
2023/05/22 01:54:21;;;;;;;;;;;16.10;1.00;;;;;;5098297;28;19916;-75
2023/05/22 02:12:02;;;;;;;;;;;15.80;1.00;;;;;;5097798;28;19919;-75
2023/05/22 02:17:35;;;;;;;;;;;15.70;1.00;;;;;;5097157;28;19992;-75
2023/05/22 02:20:14;;;;;;;;;;;15.70;1.00;;;;;;5079325;28;20337;-75
2023/05/22 02:23:05;;;;;;;;;;;15.60;1.00;;;;;;5096998;28;19911;-75
2023/05/22 02:25:47;;;;;;;;;;;15.60;1.00;;;;;;5096961;28;19911;-75
2023/05/22 02:28:29;;;;;;;;;;;15.60;1.00;;;;;;5114799;28;19964;-75
2023/05/22 02:31:05;;;;;;;;;;;15.60;1.00;;;;;;5117670;28;20385;-75
2023/05/22 02:33:41;;;;;;;;;;;15.60;1.00;;;;;;5104549;28;19907;-75
2023/05/22 02:36:09;;;;;;;;;;;15.60;1.00;;;;;;5097036;28;19908;-75
2023/05/22 02:38:35;;;;;;;;;;;15.50;1.00;;;;;;5116170;28;20365;-75
2023/05/22 02:41:17;;;;;;;;;;;15.50;1.00;;;;;;5117300;28;19904;-75
2023/05/22 02:43:47;;;;;;;;;;;15.50;1.00;;;;;;5117734;28;19908;-75
2023/05/22 02:46:23;;;;;;;;;;;15.50;1.00;;;;;;5111403;28;19943;-75
2023/05/22 02:49:05;;;;;;;;;;;15.40;1.00;;;;;;5116432;28;19914;-75
2023/05/22 02:51:31;;;;;;;;;;;15.40;1.00;;;;;;5117127;28;19918;-75
2023/05/22 02:53:59;;;;;;;;;;;15.40;1.00;;;;;;5116840;28;19919;-75
2023/05/22 02:56:41;;;;;;;;;;;15.40;1.00;;;;;;5102540;28;19908;-75
2023/05/22 03:02:11;;;;;;;;;;;15.40;1.00;;;;;;5096512;28;19910;-82
2023/05/22 03:05:05;;;;;;;;;;;15.40;1.00;;;;;;5104152;28;19908;-82
2023/05/22 03:08:05;;;;;;;;;;;15.30;1.00;;;;;;5098306;28;19929;-82
2023/05/22 03:13:34;;;;;;;;;;;15.40;1.00;;;;;;5096117;28;20277;-82
2023/05/22 03:16:35;;;;;;;;;;;15.30;1.00;;;;;;5078117;28;20012;-83
2023/05/22 03:19:08;;;;;;;;;;;15.30;1.00;;;;;;5078020;28;19953;-83
2023/05/22 03:21:35;;;;;;;;;;;15.30;1.00;;;;;;5096150;28;20434;-83
2023/05/22 03:27:35;;;;;;;;;;;15.30;1.00;;;;;;5096068;28;19904;-83
2023/05/22 03:33:05;;;;;;;;;;;15.30;1.00;;;;;;5099029;28;20450;-82
2023/05/22 03:35:31;;;;;;;;;;;15.30;1.00;;;;;;5077679;28;19931;-83
2023/05/22 03:41:06;;;;;;;;;;;15.20;1.00;;;;;;5095375;28;20003;-83
2023/05/22 03:43:35;;;;;;;;;;;15.20;1.00;;;;;;5095963;28;20410;-81
2023/05/22 03:46:17;;;;;;;;;;;15.20;1.00;;;;;;5091314;28;19915;-82
2023/05/22 03:49:05;;;;;;;;;;;15.20;1.00;;;;;;5095408;28;19999;-82
2023/05/22 03:57:35;;;;;;;;;;;15.30;1.00;;;;;;5094532;28;19904;-82
2023/05/22 04:00:37;;;;;;;;;;;15.30;1.00;;;;;;5094409;28;19908;-85
2023/05/22 04:03:06;;;;;;;;;;;15.30;1.00;;;;;;5087202;28;19903;-84
2023/05/22 04:09:05;;;;;;;;;;;15.40;1.00;;;;;;5115783;28;19953;-84
2023/05/22 04:12:05;;;;;;;;;;;15.40;1.00;;;;;;5097262;28;19910;-84
2023/05/22 04:18:05;;;;;;;;;;;15.50;1.00;;;;;;5115004;28;19949;-81
2023/05/22 04:20:35;;;;;;;;;;;15.60;1.00;;;;;;5115267;28;19903;-81
2023/05/22 04:23:35;;;;;;;;;;;15.60;1.00;;;;;;5096974;28;19904;-81
2023/05/22 04:26:36;;;;;;;;;;;15.60;1.00;;;;;;5095373;28;19908;-82
2023/05/22 04:29:09;;;;;;;;;;;15.70;1.00;;;;;;5081321;28;19915;-82
2023/05/22 04:32:09;;;;;;;;;;;15.70;1.00;;;;;;5097077;28;19904;-84
2023/05/22 04:34:36;;;;;;;;;;;15.70;1.00;;;;;;5076687;28;19912;-84
2023/05/22 04:37:02;;;;;;;;;;;15.70;1.00;;;;;;5094781;28;19990;-84
2023/05/22 04:39:36;;;;;;;;;;;15.80;1.00;;;;;;5076895;28;20021;-84
2023/05/22 04:42:36;;;;;;;;;;;15.80;1.00;;;;;;5076816;28;19904;-84
2023/05/22 04:45:35;;;;;;;;;;;15.80;1.00;;;;;;5076879;28;20352;-82
2023/05/22 04:48:35;;;;;;;;;;;15.90;1.00;;;;;;5094447;28;19904;-82
2023/05/22 04:51:01;;;;;;;;;;;16.00;1.00;;;;;;5076274;28;19959;-82
2023/05/22 04:53:29;;;;;;;;;;;16.00;1.00;;;;;;5076024;28;19963;-81
2023/05/22 05:05:05;;;;;;;;;;;16.30;1.00;;;;;;5096846;28;19911;-82
2023/05/22 05:07:36;;;;;;;;;;;16.40;1.00;;;;;;5106211;28;19908;-82
2023/05/22 05:10:06;;;;;;;;;;;16.50;1.00;;;;;;5096471;28;19911;-81
2023/05/22 05:13:05;;;;;;;;;;;16.60;1.00;;;;;;5098402;28;19968;-82
2023/05/22 05:19:05;;;;;;;;;;;16.80;1.00;;;;;;5118780;28;19910;-83
2023/05/22 05:21:35;;;;;;;;;;;16.90;1.00;;;;;;5100398;28;19903;-83
2023/05/22 05:24:05;;;;;;;;;;;17.10;1.00;;;;;;5119126;28;19903;-83
2023/05/22 05:26:35;;;;;;;;;;;17.20;1.00;;;;;;5118982;28;19961;-83
2023/05/22 05:29:05;;;;;;;;;;;17.40;1.00;;;;;;5081201;28;19954;-82
2023/05/22 05:35:05;;;;;;;;;;;17.70;1.00;;;;;;5118420;28;19923;-83
2023/05/22 05:37:35;;;;;;;;;;;17.90;1.00;;;;;;5100460;28;19904;-83
2023/05/22 05:40:06;;;;;;;;;;;18.10;1.00;;;;;;5117743;28;19904;-83
2023/05/22 05:42:35;;;;;;;;;;;18.20;1.00;;;;;;5106588;28;20339;-83
2023/05/22 05:48:35;;;;;;;;;;;18.60;1.00;;;;;;5098003;28;19954;-83
2023/05/22 05:51:01;;;;;;;;;;;18.70;1.00;;;;;;5090802;28;20010;-83
2023/05/22 05:53:27;;;;;;;;;;;18.90;1.00;;;;;;5100059;28;20006;-83
2023/05/22 05:56:06;;;;;;;;;;;19.10;1.00;;;;;;5118198;28;19982;-83
2023/05/22 05:58:35;;;;;;;;;;;19.20;1.00;;;;;;5082433;28;19995;-82
2023/05/22 06:01:35;;;;;;;;;;;19.30;1.00;;;;;;5080425;28;19908;-83
2023/05/22 06:04:35;;;;;;;;;;;19.50;1.00;;;;;;5079782;28;20334;-83
2023/05/22 06:07:05;;;;;;;;;;;19.70;1.00;;;;;;5079763;28;20321;-83
2023/05/22 06:09:35;;;;;;;;;;;19.80;1.00;;;;;;5097844;28;19946;-84
2023/05/22 06:12:36;;;;;;;;;;;19.90;1.00;;;;;;5097791;28;19904;-84
2023/05/22 06:15:08;;;;;;;;;;;20.00;1.00;;;;;;5079918;28;20363;-84
2023/05/22 06:18:05;;;;;;;;;;;20.20;1.00;;;;;;5079329;28;19904;-84
2023/05/22 06:23:35;;;;;;;;;;;20.40;1.00;;;;;;5097133;28;20000;-84
2023/05/22 06:26:05;;;;;;;;;;;20.50;1.00;;;;;;5079212;28;19911;-83
2023/05/22 06:29:05;;;;;;;;;;;20.60;1.00;;;;;;5079097;28;19911;-84
2023/05/22 06:31:37;;;;;;;;;;;20.60;1.00;;;;;;5097735;28;19908;-83
2023/05/22 06:34:35;;;;;;;;;;;20.80;1.00;;;;;;5078655;28;19915;-84
2023/05/22 06:37:17;;;;;;;;;;;20.90;1.00;;;;;;5078857;28;20014;-84
2023/05/22 06:40:05;;;;;;;;;;;21.00;1.00;;;;;;5078922;28;19915;-83
2023/05/22 06:42:35;;;;;;;;;;;21.20;1.00;;;;;;5078647;28;19947;-83
2023/05/22 06:45:06;;;;;;;;;;;21.30;1.00;;;;;;5097452;28;19966;-84
2023/05/22 06:47:35;;;;;;;;;;;21.50;1.00;;;;;;5079305;28;19907;-84
2023/05/22 06:50:01;;;;;;;;;;;21.60;1.00;;;;;;5097003;28;19999;-84
2023/05/22 06:52:26;;;;;;;;;;;21.80;1.00;;;;;;5097048;28;19962;-84
2023/05/22 06:55:06;;;;;;;;;;;21.90;1.00;;;;;;5079041;28;19914;-84
2023/05/22 06:57:36;;;;;;;;;;;22.00;1.00;;;;;;5101381;28;19994;-84
2023/05/22 07:00:08;;;;;;;;;;;22.20;1.00;;;;;;5097723;28;19911;-84
2023/05/22 07:02:35;;;;;;;;;;;22.20;1.00;;;;;;5078915;28;19951;-84
2023/05/22 07:05:05;;;;;;;;;;;22.40;1.00;;;;;;5078663;28;20370;-84
2023/05/22 07:08:05;;;;;;;;;;;22.50;1.00;;;;;;5096781;28;19904;-85
2023/05/22 07:11:06;;;;;;;;;;;22.60;1.00;;;;;;5078623;28;20324;-85
2023/05/22 07:19:37;;;;;;;;;;;23.20;1.00;;;;;;5105107;28;19911;-84
2023/05/22 07:25:06;;;;;;;;;;;23.50;1.00;;;;;;5096224;28;19969;-84
2023/05/22 07:27:31;;;;;;;;;;;23.60;1.00;;;;;;5081369;28;19904;-84
2023/05/22 07:36:03;;;;;;;;;;;24.00;1.00;;;;;;5095892;28;19919;-84
2023/05/22 07:41:35;;;;;;;;;;;24.30;1.00;;;;;;5110767;28;20413;-84
2023/05/22 07:47:04;;;;;;;;;;;24.60;1.00;;;;;;5095691;28;19911;-83
2023/05/22 07:49:51;;;;;;;;;;;24.70;1.00;;;;;;5077155;28;19908;-83
2023/05/22 07:55:44;;;;;;;;;;;24.90;1.00;;;;;;5095268;28;19953;-83
2023/05/22 07:58:24;;;;;;;;;;;24.90;1.00;;;;;;5094624;28;20424;-83
2023/05/22 08:01:03;;;;;;;;;;;25.10;1.00;;;;;;5106998;28;19907;-84
2023/05/22 08:03:53;;;;;;;;;;;25.20;1.00;;;;;;5077480;28;19969;-84
2023/05/22 08:12:25;;;;;;;;;;;25.80;1.00;;;;;;5115730;28;19928;-84
2023/05/22 08:24:00;;;;;;;;;;;26.30;1.00;;;;;;5094795;28;19919;-84
2023/05/22 08:32:32;;;;;;;;;;;26.50;1.00;;;;;;5099368;28;19999;-84
2023/05/22 08:41:05;;;;;;;;;;;26.70;1.00;;;;;;5112906;28;19946;-84
2023/05/22 08:46:36;;;;;;;;;;;27.10;1.00;;;;;;5115563;28;19942;-85
2023/05/22 08:55:42;;;;;;;;;;;27.10;1.00;;;;;;5094789;28;20022;-85
2023/05/22 09:01:12;;;;;;;;;;;27.50;1.00;;;;;;5095139;28;20421;-84
2023/05/22 09:06:40;;;;;;;;;;;27.80;1.00;;;;;;5097225;28;19952;-84
2023/05/22 09:12:09;;;;;;;;;;;27.80;1.00;;;;;;5098297;28;20373;-84
2023/05/22 09:17:39;;;;;;;;;;;28.10;1.00;;;;;;5107313;28;19910;-84
2023/05/22 09:23:16;;;;;;;;;;;28.40;1.00;;;;;;5097784;28;19930;-85
2023/05/22 09:28:46;;;;;;;;;;;28.60;1.00;;;;;;5105021;28;19915;-85
2023/05/22 09:31:35;;;;;;;;;;;28.70;1.00;;;;;;5114940;28;19915;-85
2023/05/22 09:37:04;;;;;;;;;;;28.90;1.00;;;;;;5094825;28;19915;-85
2023/05/22 09:42:33;;;;;;;;;;;29.00;1.00;;;;;;5107814;28;20390;-85
2023/05/22 09:48:05;;;;;;;;;;;29.20;1.00;;;;;;5094808;28;19912;-85
2023/05/22 09:50:31;;;;;;;;;;;29.20;1.00;;;;;;5094315;28;19990;-86
2023/05/22 09:53:00;;;;;;;;;;;29.40;1.00;;;;;;5094158;28;19970;-86
2023/05/22 09:55:26;;;;;;;;;;;29.30;1.00;;;;;;5095183;28;19917;-86
2023/05/22 10:03:58;;;;;;;;;;;29.00;1.00;;;;;;5097943;28;19953;-85
2023/05/22 10:09:42;;;;;;;;;;;29.10;1.00;;;;;;5108353;28;19964;-85
2023/05/22 10:12:15;;;;;;;;;;;29.10;1.00;;;;;;5117882;28;19908;-86
2023/05/22 10:17:43;;;;;;;;;;;29.00;1.00;;;;;;5118569;28;19915;-85
2023/05/22 10:20:12;;;;;;;;;;;28.90;1.00;;;;;;5099560;28;19904;-85
2023/05/22 10:25:40;;;;;;;;;;;29.10;1.00;;;;;;5117877;28;20329;-85
2023/05/22 10:34:16;;;;;;;;;;;29.40;1.00;;;;;;5116510;28;19918;-85
2023/05/22 10:36:59;;;;;;;;;;;29.40;1.00;;;;;;5117916;28;19970;-85
2023/05/22 10:42:28;;;;;;;;;;;29.40;1.00;;;;;;5117598;28;20332;-86
2023/05/22 10:48:01;;;;;;;;;;;29.60;1.00;;;;;;5111542;28;19930;-84
2023/05/22 10:50:27;;;;;;;;;;;29.80;1.00;;;;;;5095025;28;19995;-85
2023/05/22 10:53:12;;;;;;;;;;;29.80;1.00;;;;;;5101137;28;19912;-85
2023/05/22 10:55:45;;;;;;;;;;;29.90;1.00;;;;;;5099284;28;19907;-85
2023/05/22 11:01:18;;;;;;;;;;;29.70;1.00;;;;;;5105083;28;19914;-85
2023/05/22 11:07:00;;;;;;;;;;;29.30;1.00;;;;;;5096225;28;19911;-85
2023/05/22 11:15:32;;;;;;;;;;;29.60;1.00;;;;;;5096325;28;20337;-86
2023/05/22 11:21:02;;;;;;;;;;;29.80;1.00;;;;;;5096260;28;19914;-86
2023/05/22 11:23:32;;;;;;;;;;;29.90;1.00;;;;;;5078330;28;19904;-86
2023/05/22 11:26:26;;;;;;;;;;;30.00;1.00;;;;;;5094150;28;19907;-76
2023/05/22 11:28:52;;;;;;;;;;;30.10;1.00;;;;;;5092900;28;19908;-76
2023/05/22 11:31:18;;;;;;;;;;;30.30;1.00;;;;;;5096096;28;20014;-76
2023/05/22 11:36:47;;;;;;;;;;;30.50;1.00;;;;;;5095471;28;19911;-81
2023/05/22 11:48:22;;;;;;;;;;;31.40;1.00;;;;;;5116076;28;19955;-77
2023/05/22 11:50:47;;;;;;;;;;;31.10;1.00;;;;;;5115802;28;19911;-76
2023/05/22 11:53:13;;;;;;;;;;;31.20;1.00;;;;;;5115959;28;20240;-76
2023/05/22 11:55:41;;;;;;;;;;;31.10;1.00;;;;;;5115901;28;20002;-76
2023/05/22 11:58:11;;;;;;;;;;;31.00;1.00;;;;;;5115482;28;20278;-76
2023/05/22 12:00:37;;;;;;;;;;;31.10;1.00;;;;;;5113880;28;20295;-75
2023/05/22 12:06:07;;;;;;;;;;;31.00;1.00;;;;;;5095094;28;19911;-81
2023/05/22 12:11:36;;;;;;;;;;;31.00;1.00;;;;;;5113926;28;19918;-80
2023/05/22 12:17:05;;;;;;;;;;;30.50;1.00;;;;;;5115196;28;19911;-82
2023/05/22 12:19:31;;;;;;;;;;;30.50;1.00;;;;;;5114929;28;19911;-76
2023/05/22 12:21:57;;;;;;;;;;;30.70;1.00;;;;;;5115440;28;19986;-76
2023/05/22 12:24:23;;;;;;;;;;;30.70;1.00;;;;;;5115421;28;19910;-76
2023/05/22 12:26:49;;;;;;;;;;;31.00;1.00;;;;;;5115368;28;19903;-76
2023/05/22 12:29:15;;;;;;;;;;;31.10;1.00;;;;;;5113794;28;19908;-76
2023/05/22 12:31:42;;;;;;;;;;;31.10;1.00;;;;;;5114676;28;20365;-76
2023/05/22 12:34:12;;;;;;;;;;;31.10;1.00;;;;;;5115449;28;20347;-76
2023/05/22 12:36:42;;;;;;;;;;;31.10;1.00;;;;;;5115104;28;20006;-75
2023/05/22 12:39:17;;;;;;;;;;;31.20;1.00;;;;;;5115139;28;19950;-76
2023/05/22 12:42:00;;;;;;;;;;;31.30;1.00;;;;;;5115279;28;20114;-76
2023/05/22 12:44:29;;;;;;;;;;;31.30;1.00;;;;;;5113094;28;19904;-76
2023/05/22 12:46:55;;;;;;;;;;;31.10;1.00;;;;;;5098759;28;19915;-76
2023/05/22 12:49:21;;;;;;;;;;;31.10;1.00;;;;;;5094854;28;19912;-76
2023/05/22 12:51:59;;;;;;;;;;;31.00;1.00;;;;;;5094395;28;19916;-75
2023/05/22 12:54:25;;;;;;;;;;;31.10;1.00;;;;;;5094573;28;19912;-76
2023/05/22 12:56:51;;;;;;;;;;;31.00;1.00;;;;;;5094566;28;19930;-76
2023/05/22 12:59:16;;;;;;;;;;;31.00;1.00;;;;;;5101359;28;19994;-75
2023/05/22 13:01:47;;;;;;;;;;;31.00;1.00;;;;;;5096689;28;19904;-76
2023/05/22 13:07:16;;;;;;;;;;;30.90;1.00;;;;;;5114541;28;19911;-81
2023/05/22 13:12:47;;;;;;;;;;;31.00;1.00;;;;;;5114509;28;19911;-81
2023/05/22 13:18:15;;;;;;;;;;;31.50;1.00;;;;;;5114471;28;19910;-81
2023/05/22 13:23:44;;;;;;;;;;;31.50;1.00;;;;;;5113644;28;19915;-83
2023/05/22 13:32:18;;;;;;;;;;;31.40;1.00;;;;;;5097626;28;19954;-82
2023/05/22 13:37:48;;;;;;;;;;;31.60;1.00;;;;;;5098133;28;20386;-86
2023/05/22 13:40:14;;;;;;;;;;;31.80;1.00;;;;;;5091813;28;20101;-89
2023/05/22 13:42:49;;;;;;;;;;;32.20;1.00;;;;;;5099573;28;19907;-89
2023/05/22 13:45:15;;;;;;;;;;;32.60;1.00;;;;;;5100529;28;19911;-88
2023/05/22 13:47:48;;;;;;;;;;;32.80;1.00;;;;;;5118865;28;19904;-88
2023/05/22 13:50:14;;;;;;;;;;;32.90;1.00;;;;;;5092362;28;19922;-86
2023/05/22 13:55:43;;;;;;;;;;;33.20;1.00;;;;;;5098052;28;19962;-86
2023/05/22 13:58:11;;;;;;;;;;;33.10;1.00;;;;;;5079778;28;19935;-88
2023/05/22 14:03:40;;;;;;;;;;;33.70;1.00;;;;;;5101312;28;19914;-88
2023/05/22 14:09:08;;;;;;;;;;;33.90;1.00;;;;;;5118161;28;19911;-84
2023/05/22 14:14:37;;;;;;;;;;;33.30;1.00;;;;;;5117697;28;20432;-84
2023/05/22 14:17:05;;;;;;;;;;;33.30;1.00;;;;;;5124881;28;19899;-88
2023/05/22 14:19:37;;;;;;;;;;;33.30;1.00;;;;;;5124812;28;19974;-88
2023/05/22 14:22:23;;;;;;;;;;;33.20;1.00;;;;;;5109034;28;19959;-88
2023/05/22 14:25:15;;;;;;;;;;;33.10;1.00;;;;;;5107322;28;19994;-89
2023/05/22 14:28:23;;;;;;;;;;;33.00;1.00;;;;;;5094093;28;19954;-87
2023/05/22 14:30:54;;;;;;;;;;;33.20;1.00;;;;;;5082781;28;20006;-83
2023/05/22 14:33:35;;;;;;;;;;;33.00;1.00;;;;;;5080829;28;20423;-85
2023/05/22 14:39:35;;;;;;;;;;;32.60;1.00;;;;;;5098922;28;20012;-89
2023/05/22 14:45:06;;;;;;;;;;;32.90;1.00;;;;;;5107811;28;19919;-86
2023/05/22 14:47:36;;;;;;;;;;;32.90;1.00;;;;;;5097355;28;19957;-87
2023/05/22 14:50:01;;;;;;;;;;;32.90;1.00;;;;;;5088074;28;19930;-89
2023/05/22 14:52:27;;;;;;;;;;;32.90;1.00;;;;;;5092234;28;20386;-90
2023/05/22 14:55:06;;;;;;;;;;;33.10;1.00;;;;;;5123126;28;19919;-88
2023/05/22 14:57:33;;;;;;;;;;;32.80;1.00;;;;;;5085515;28;20405;-88
2023/05/22 14:59:59;;;;;;;;;;;32.40;1.00;;;;;;5084946;28;19914;-89
2023/05/22 15:02:30;;;;;;;;;;;32.10;1.00;;;;;;5103521;28;19908;-89
2023/05/22 15:11:27;;;;;;;;;;;31.40;1.00;;;;;;5101911;28;19911;-88
2023/05/22 15:13:54;;;;;;;;;;;30.90;1.00;;;;;;5087855;28;19967;-88
2023/05/22 15:16:24;;;;;;;;;;;30.60;1.00;;;;;;5077748;28;20363;-89
2023/05/22 15:18:50;;;;;;;;;;;30.10;1.00;;;;;;5083247;28;20430;-88
2023/05/22 15:21:17;;;;;;;;;;;30.00;1.00;;;;;;5089989;28;19935;-89
2023/05/22 15:23:43;;;;;;;;;;;29.80;1.00;;;;;;5105842;28;20343;-90
2023/05/22 15:26:12;;;;;;;;;;;30.40;1.00;;;;;;5091781;28;19950;-89
2023/05/22 15:28:42;;;;;;;;;;;29.70;1.00;;;;;;5084665;28;19949;-89
2023/05/22 15:31:29;;;;;;;;;;;29.50;1.00;;;;;;5089203;28;19915;-88
2023/05/22 15:34:30;;;;;;;;;;;29.40;1.00;;;;;;5088459;28;19912;-91
2023/05/22 15:40:15;;;;;;;;;;;30.90;1.00;;;;;;5101871;28;19999;-89
2023/05/22 15:42:47;;;;;;;;;;;31.20;1.00;;;;;;5083119;28;20317;-89
2023/05/22 15:45:48;;;;;;;;;;;31.30;1.00;;;;;;5102054;28;19939;-90
2023/05/22 15:48:18;;;;;;;;;;;31.30;1.00;;;;;;5082895;28;20272;-89
2023/05/22 15:50:43;;;;;;;;;;;31.50;1.00;;;;;;5083945;28;19922;-89
2023/05/22 15:53:12;;;;;;;;;;;31.80;1.00;;;;;;5089285;28;20370;-89
2023/05/22 15:58:40;;;;;;;;;;;32.10;1.00;;;;;;5102181;28;19915;-89
2023/05/22 16:01:41;;;;;;;;;;;32.20;1.00;;;;;;5083995;28;19911;-88
2023/05/22 16:04:12;;;;;;;;;;;32.30;1.00;;;;;;5087325;28;20261;-88
2023/05/22 16:07:05;;;;;;;;;;;32.30;1.00;;;;;;5089987;28;19914;-89
2023/05/22 16:09:49;;;;;;;;;;;32.60;1.00;;;;;;5082211;28;19957;-88
2023/05/22 16:12:15;;;;;;;;;;;33.50;1.00;;;;;;5083478;28;19915;-88
2023/05/22 16:14:41;;;;;;;;;;;34.40;1.00;;;;;;5091292;28;19912;-88
2023/05/22 16:20:23;;;;;;;;;;;34.80;1.00;;;;;;5100203;28;19927;-87
2023/05/22 16:22:52;;;;;;;;;;;34.40;1.00;;;;;;5085537;28;19904;-89
2023/05/22 16:25:27;;;;;;;;;;;34.10;1.00;;;;;;5084742;28;20256;-90
2023/05/22 16:27:55;;;;;;;;;;;33.80;1.00;;;;;;5085547;28;19904;-90
2023/05/22 16:30:30;;;;;;;;;;;33.50;1.00;;;;;;5085211;28;19911;-90
2023/05/22 16:33:29;;;;;;;;;;;33.00;1.00;;;;;;5084663;28;20282;-90
2023/05/22 16:36:17;;;;;;;;;;;32.20;1.00;;;;;;5083858;28;19912;-89
2023/05/22 16:38:48;;;;;;;;;;;31.70;1.00;;;;;;5084135;28;19930;-87
2023/05/22 16:41:41;;;;;;;;;;;31.30;1.00;;;;;;5096029;28;20017;-88
2023/05/22 16:44:29;;;;;;;;;;;30.90;1.00;;;;;;5101750;28;19943;-86
2023/05/22 16:47:31;;;;;;;;;;;30.60;1.00;;;;;;5102556;28;19904;-89
2023/05/22 16:49:57;;;;;;;;;;;30.10;1.00;;;;;;5084673;28;19908;-85
2023/05/22 16:52:30;;;;;;;;;;;30.10;1.00;;;;;;5101435;28;19916;-90
2023/05/22 16:55:00;;;;;;;;;;;29.90;1.00;;;;;;5101693;28;19974;-88
2023/05/22 16:57:37;;;;;;;;;;;29.60;1.00;;;;;;5102706;28;19925;-88
2023/05/22 17:00:02;;;;;;;;;;;29.40;1.00;;;;;;5101810;28;20369;-89
2023/05/22 17:02:29;;;;;;;;;;;29.10;1.00;;;;;;5104369;28;19971;-88
2023/05/22 17:05:29;;;;;;;;;;;28.90;1.00;;;;;;5100758;28;19904;-87
2023/05/22 17:08:00;;;;;;;;;;;28.60;1.00;;;;;;5083909;28;19908;-88
2023/05/22 17:10:30;;;;;;;;;;;28.30;1.00;;;;;;5082831;28;19908;-88
2023/05/22 17:12:55;;;;;;;;;;;28.00;1.00;;;;;;5083867;28;19908;-88
2023/05/22 17:15:29;;;;;;;;;;;27.80;1.00;;;;;;5088241;28;19938;-88
2023/05/22 17:24:30;;;;;;;;;;;26.60;1.00;;;;;;5112334;28;20469;-87
2023/05/22 17:30:18;;;;;;;;;;;25.80;1.00;;;;;;5099323;28;19965;-88
2023/05/22 17:35:54;;;;;;;;;;;25.30;1.00;;;;;;5093929;28;20366;-85
2023/05/22 17:38:30;;;;;;;;;;;25.00;1.00;;;;;;5094881;28;19910;-92
2023/05/22 17:47:02;;;;;;;;;;;24.40;1.00;;;;;;5095478;28;20267;-92
2023/05/22 17:49:51;;;;;;;;;;;24.20;1.00;;;;;;5085991;28;19908;-91
2023/05/22 17:52:17;;;;;;;;;;;24.00;1.00;;;;;;5095185;28;19919;-86
2023/05/22 17:54:42;;;;;;;;;;;23.90;1.00;;;;;;5076084;28;19914;-83
2023/05/22 18:00:12;;;;;;;;;;;23.60;1.00;;;;;;5107044;28;19969;-83
2023/05/22 18:03:06;;;;;;;;;;;23.40;1.00;;;;;;5082210;28;19908;-85
2023/05/22 18:05:42;;;;;;;;;;;23.20;1.00;;;;;;5088543;28;19912;-85
2023/05/22 18:08:30;;;;;;;;;;;23.00;1.00;;;;;;5077732;28;19927;-89
2023/05/22 18:13:58;;;;;;;;;;;22.70;1.00;;;;;;5093852;28;19916;-87
2023/05/22 18:22:30;;;;;;;;;;;22.70;1.00;;;;;;5097661;28;20409;-91
2023/05/22 18:27:58;;;;;;;;;;;22.80;1.00;;;;;;5098375;28;19911;-90
2023/05/22 18:30:54;;;;;;;;;;;22.90;1.00;;;;;;5081997;28;19963;-90
2023/05/22 18:42:28;;;;;;;;;;;22.80;1.00;;;;;;5098263;28;19988;-84
2023/05/22 18:47:56;;;;;;;;;;;22.70;1.00;;;;;;5096898;28;19970;-85
2023/05/22 18:50:21;;;;;;;;;;;22.50;1.00;;;;;;5087860;28;20359;-87
2023/05/22 18:52:47;;;;;;;;;;;22.40;1.00;;;;;;5097140;28;19912;-90
2023/05/22 18:58:16;;;;;;;;;;;22.10;1.00;;;;;;5097243;28;19910;-89
2023/05/22 19:15:57;;;;;;;;;;;21.10;1.00;;;;;;5096185;28;19999;-82
2023/05/22 19:18:26;;;;;;;;;;;20.90;1.00;;;;;;5078224;28;20489;-82
2023/05/22 19:27:00;;;;;;;;;;;20.50;1.00;;;;;;5096801;28;19911;-90
2023/05/22 19:29:26;;;;;;;;;;;20.30;1.00;;;;;;5088637;28;19908;-90
2023/05/22 19:37:58;;;;;;;;;;;19.90;1.00;;;;;;5116422;28;19911;-89
2023/05/22 19:40:30;;;;;;;;;;;19.80;1.00;;;;;;5098340;28;19907;-72
2023/05/22 19:42:55;;;;;;;;;;;19.60;1.00;;;;;;5116288;28;19910;-72
2023/05/22 19:45:42;;;;;;;;;;;19.50;1.00;;;;;;5116105;28;19904;-75
2023/05/22 19:48:12;;;;;;;;;;;19.40;1.00;;;;;;5099507;28;19904;-75
2023/05/22 19:50:38;;;;;;;;;;;19.30;1.00;;;;;;5109266;28;20343;-75
2023/05/22 19:53:12;;;;;;;;;;;19.20;1.00;;;;;;5116129;28;19970;-75
2023/05/22 19:58:40;;;;;;;;;;;19.00;1.00;;;;;;5116173;28;20006;-83
2023/05/22 20:04:09;;;;;;;;;;;18.80;1.00;;;;;;5116045;28;20330;-83
2023/05/22 20:09:42;;;;;;;;;;;18.70;1.00;;;;;;5114316;28;19915;-75
2023/05/22 20:12:36;;;;;;;;;;;18.70;1.00;;;;;;5115682;28;19910;-75
2023/05/22 20:15:06;;;;;;;;;;;18.70;1.00;;;;;;5115497;28;19908;-75
2023/05/22 20:17:37;;;;;;;;;;;18.60;1.00;;;;;;5115720;28;19907;-75
2023/05/22 20:20:03;;;;;;;;;;;18.60;1.00;;;;;;5115667;28;19910;-75
2023/05/22 20:22:36;;;;;;;;;;;18.60;1.00;;;;;;5114590;28;20002;-76
2023/05/22 20:28:05;;;;;;;;;;;18.40;1.00;;;;;;5115495;28;20389;-82
2023/05/22 20:36:41;;;;;;;;;;;18.40;1.00;;;;;;5115523;28;20378;-83
2023/05/22 20:42:11;;;;;;;;;;;18.30;1.00;;;;;;5115149;28;19910;-83
2023/05/22 20:44:48;;;;;;;;;;;18.30;1.00;;;;;;5097231;28;19953;-83
2023/05/22 20:50:16;;;;;;;;;;;18.20;1.00;;;;;;5114667;28;20320;-83
2023/05/22 20:55:44;;;;;;;;;;;18.20;1.00;;;;;;5095471;28;20374;-83
2023/05/22 21:01:18;;;;;;;;;;;18.20;1.00;;;;;;5094451;28;19962;-83
2023/05/22 21:06:46;;;;;;;;;;;18.10;1.00;;;;;;5094730;28;19958;-83
2023/05/22 21:12:18;;;;;;;;;;;18.00;1.00;;;;;;5094365;28;20404;-76
2023/05/22 21:14:48;;;;;;;;;;;18.00;1.00;;;;;;5094610;28;19908;-76
2023/05/22 21:17:36;;;;;;;;;;;17.90;1.00;;;;;;5094642;28;19911;-75
2023/05/22 21:20:03;;;;;;;;;;;17.90;1.00;;;;;;5094365;28;19904;-76
2023/05/22 21:22:36;;;;;;;;;;;17.90;1.00;;;;;;5100555;28;20262;-76
2023/05/22 21:25:18;;;;;;;;;;;17.90;1.00;;;;;;5115124;28;19907;-76
2023/05/22 21:27:48;;;;;;;;;;;17.90;1.00;;;;;;5114527;28;20007;-76
2023/05/22 21:30:18;;;;;;;;;;;17.80;1.00;;;;;;5114649;28;19910;-75
2023/05/22 21:32:43;;;;;;;;;;;17.90;1.00;;;;;;5114990;28;19904;-75
2023/05/22 21:35:30;;;;;;;;;;;17.80;1.00;;;;;;5114678;28;19931;-76
2023/05/22 21:38:00;;;;;;;;;;;17.70;1.00;;;;;;5114659;28;19903;-76
2023/05/22 21:40:25;;;;;;;;;;;17.70;1.00;;;;;;5114901;28;19903;-75
2023/05/22 21:45:54;;;;;;;;;;;17.70;1.00;;;;;;5114467;28;19984;-76
2023/05/22 21:48:24;;;;;;;;;;;17.70;1.00;;;;;;5114963;28;19907;-76
2023/05/22 21:50:49;;;;;;;;;;;17.70;1.00;;;;;;5114472;28;20017;-76
2023/05/22 21:53:18;;;;;;;;;;;17.70;1.00;;;;;;5096220;28;20029;-75
2023/05/22 21:58:47;;;;;;;;;;;17.50;1.00;;;;;;5098066;28;19910;-83
2023/05/22 22:01:48;;;;;;;;;;;17.40;1.00;;;;;;5079873;28;19908;-83
2023/05/22 22:04:48;;;;;;;;;;;17.40;1.00;;;;;;5091423;28;19904;-83
2023/05/22 22:10:16;;;;;;;;;;;17.30;1.00;;;;;;5118668;28;19952;-83
2023/05/22 22:15:45;;;;;;;;;;;17.20;1.00;;;;;;5117981;28;19919;-83
2023/05/22 22:18:18;;;;;;;;;;;17.20;1.00;;;;;;5099644;28;19904;-83
2023/05/22 22:21:18;;;;;;;;;;;17.20;1.00;;;;;;5099824;28;19904;-83
2023/05/22 22:27:12;;;;;;;;;;;17.10;1.00;;;;;;5118012;28;19956;-75
2023/05/22 22:29:37;;;;;;;;;;;17.00;1.00;;;;;;5099664;28;20344;-75
2023/05/22 22:32:18;;;;;;;;;;;17.00;1.00;;;;;;5117626;28;19950;-76